sensor_id;sensor_type;location;lat;lon;timestamp;P1;durP1;ratioP1;P2;durP2;ratioP2
19923;SDS011;10124;53.068;18.224;2022-11-20T00:01:28;61.87;;;39.63;;
19923;SDS011;10124;53.068;18.224;2022-11-20T00:03:56;67.83;;;41.43;;
19923;SDS011;10124;53.068;18.224;2022-11-20T00:06:26;64.57;;;39.87;;
19923;SDS011;10124;53.068;18.224;2022-11-20T00:08:55;68.30;;;39.37;;
19923;SDS011;10124;53.068;18.224;2022-11-20T00:11:27;64.60;;;38.73;;
19923;SDS011;10124;53.068;18.224;2022-11-20T00:13:58;65.30;;;39.50;;
19923;SDS011;10124;53.068;18.224;2022-11-20T00:16:28;60.63;;;39.40;;
19923;SDS011;10124;53.068;18.224;2022-11-20T00:18:58;71.17;;;40.30;;
19923;SDS011;10124;53.068;18.224;2022-11-20T00:21:26;66.77;;;40.27;;
19923;SDS011;10124;53.068;18.224;2022-11-20T00:23:55;66.07;;;38.80;;
19923;SDS011;10124;53.068;18.224;2022-11-20T00:26:23;69.60;;;39.90;;
19923;SDS011;10124;53.068;18.224;2022-11-20T00:28:56;61.77;;;38.47;;
19923;SDS011;10124;53.068;18.224;2022-11-20T00:31:25;68.33;;;39.47;;
19923;SDS011;10124;53.068;18.224;2022-11-20T00:33:53;65.47;;;38.77;;
19923;SDS011;10124;53.068;18.224;2022-11-20T00:36:22;59.30;;;37.77;;
19923;SDS011;10124;53.068;18.224;2022-11-20T00:38:53;59.93;;;38.53;;
19923;SDS011;10124;53.068;18.224;2022-11-20T00:41:23;59.83;;;37.67;;
19923;SDS011;10124;53.068;18.224;2022-11-20T00:43:52;62.43;;;37.97;;
19923;SDS011;10124;53.068;18.224;2022-11-20T00:46:22;62.10;;;37.37;;
19923;SDS011;10124;53.068;18.224;2022-11-20T00:48:51;62.00;;;38.50;;
19923;SDS011;10124;53.068;18.224;2022-11-20T00:51:20;63.33;;;39.40;;
19923;SDS011;10124;53.068;18.224;2022-11-20T00:53:50;60.07;;;36.97;;
19923;SDS011;10124;53.068;18.224;2022-11-20T00:56:18;60.10;;;38.40;;
19923;SDS011;10124;53.068;18.224;2022-11-20T00:58:47;65.43;;;41.33;;
19923;SDS011;10124;53.068;18.224;2022-11-20T01:01:19;64.67;;;38.83;;
19923;SDS011;10124;53.068;18.224;2022-11-20T01:03:52;59.47;;;38.03;;
19923;SDS011;10124;53.068;18.224;2022-11-20T01:06:24;69.83;;;39.97;;
19923;SDS011;10124;53.068;18.224;2022-11-20T01:08:53;63.23;;;40.10;;
19923;SDS011;10124;53.068;18.224;2022-11-20T01:11:23;67.70;;;40.53;;
19923;SDS011;10124;53.068;18.224;2022-11-20T01:13:53;70.50;;;42.40;;
19923;SDS011;10124;53.068;18.224;2022-11-20T01:16:23;64.63;;;40.90;;
19923;SDS011;10124;53.068;18.224;2022-11-20T01:18:55;62.37;;;39.17;;
19923;SDS011;10124;53.068;18.224;2022-11-20T01:21:26;64.03;;;40.07;;
19923;SDS011;10124;53.068;18.224;2022-11-20T01:23:58;65.63;;;40.67;;
19923;SDS011;10124;53.068;18.224;2022-11-20T01:26:27;66.20;;;41.50;;
19923;SDS011;10124;53.068;18.224;2022-11-20T01:28:56;67.17;;;41.33;;
19923;SDS011;10124;53.068;18.224;2022-11-20T01:31:29;70.37;;;39.90;;
19923;SDS011;10124;53.068;18.224;2022-11-20T01:34:02;72.03;;;39.77;;
19923;SDS011;10124;53.068;18.224;2022-11-20T01:36:33;70.53;;;41.23;;
19923;SDS011;10124;53.068;18.224;2022-11-20T01:39:05;68.37;;;41.90;;
19923;SDS011;10124;53.068;18.224;2022-11-20T01:41:34;68.40;;;42.33;;
19923;SDS011;10124;53.068;18.224;2022-11-20T01:44:21;76.27;;;43.30;;
19923;SDS011;10124;53.068;18.224;2022-11-20T01:47:08;68.80;;;42.53;;
19923;SDS011;10124;53.068;18.224;2022-11-20T01:49:46;68.43;;;41.67;;
19923;SDS011;10124;53.068;18.224;2022-11-20T01:52:23;69.67;;;43.10;;
19923;SDS011;10124;53.068;18.224;2022-11-20T01:54:56;75.40;;;44.47;;
19923;SDS011;10124;53.068;18.224;2022-11-20T01:57:29;73.93;;;43.53;;
19923;SDS011;10124;53.068;18.224;2022-11-20T02:00:00;72.53;;;44.60;;
19923;SDS011;10124;53.068;18.224;2022-11-20T02:02:39;76.40;;;44.57;;
19923;SDS011;10124;53.068;18.224;2022-11-20T02:07:56;73.43;;;43.80;;
19923;SDS011;10124;53.068;18.224;2022-11-20T02:10:25;74.70;;;43.40;;
19923;SDS011;10124;53.068;18.224;2022-11-20T02:12:54;74.00;;;43.77;;
19923;SDS011;10124;53.068;18.224;2022-11-20T02:15:41;74.63;;;43.17;;
19923;SDS011;10124;53.068;18.224;2022-11-20T02:18:10;77.17;;;44.13;;
19923;SDS011;10124;53.068;18.224;2022-11-20T02:20:44;74.33;;;44.07;;
19923;SDS011;10124;53.068;18.224;2022-11-20T02:25:56;74.23;;;44.40;;
19923;SDS011;10124;53.068;18.224;2022-11-20T02:28:27;81.93;;;46.40;;
19923;SDS011;10124;53.068;18.224;2022-11-20T02:30:55;76.10;;;45.13;;
19923;SDS011;10124;53.068;18.224;2022-11-20T02:33:23;74.37;;;46.10;;
19923;SDS011;10124;53.068;18.224;2022-11-20T02:35:50;76.53;;;44.60;;
19923;SDS011;10124;53.068;18.224;2022-11-20T02:38:18;78.57;;;46.90;;
19923;SDS011;10124;53.068;18.224;2022-11-20T02:40:46;79.73;;;45.73;;
19923;SDS011;10124;53.068;18.224;2022-11-20T02:43:20;79.17;;;45.57;;
19923;SDS011;10124;53.068;18.224;2022-11-20T02:45:48;78.73;;;45.83;;
19923;SDS011;10124;53.068;18.224;2022-11-20T02:48:16;74.17;;;45.37;;
19923;SDS011;10124;53.068;18.224;2022-11-20T02:50:44;84.63;;;46.23;;
19923;SDS011;10124;53.068;18.224;2022-11-20T02:53:11;76.97;;;44.87;;
19923;SDS011;10124;53.068;18.224;2022-11-20T02:55:39;71.00;;;44.30;;
19923;SDS011;10124;53.068;18.224;2022-11-20T02:58:06;74.33;;;44.37;;
19923;SDS011;10124;53.068;18.224;2022-11-20T03:00:34;70.57;;;41.93;;
19923;SDS011;10124;53.068;18.224;2022-11-20T03:03:02;75.57;;;42.27;;
19923;SDS011;10124;53.068;18.224;2022-11-20T03:05:29;73.27;;;42.37;;
19923;SDS011;10124;53.068;18.224;2022-11-20T03:07:57;70.97;;;42.47;;
19923;SDS011;10124;53.068;18.224;2022-11-20T03:10:24;71.33;;;41.97;;
19923;SDS011;10124;53.068;18.224;2022-11-20T03:12:52;66.57;;;41.23;;
19923;SDS011;10124;53.068;18.224;2022-11-20T03:15:23;73.07;;;42.30;;
19923;SDS011;10124;53.068;18.224;2022-11-20T03:17:54;65.70;;;40.07;;
19923;SDS011;10124;53.068;18.224;2022-11-20T03:20:23;63.27;;;38.47;;
19923;SDS011;10124;53.068;18.224;2022-11-20T03:22:50;63.03;;;38.53;;
19923;SDS011;10124;53.068;18.224;2022-11-20T03:25:20;64.63;;;39.80;;
19923;SDS011;10124;53.068;18.224;2022-11-20T03:27:49;61.10;;;37.13;;
19923;SDS011;10124;53.068;18.224;2022-11-20T03:30:17;66.47;;;38.53;;
19923;SDS011;10124;53.068;18.224;2022-11-20T03:32:44;70.67;;;41.00;;
19923;SDS011;10124;53.068;18.224;2022-11-20T03:35:12;67.00;;;38.80;;
19923;SDS011;10124;53.068;18.224;2022-11-20T03:37:40;60.03;;;36.47;;
19923;SDS011;10124;53.068;18.224;2022-11-20T03:40:08;65.87;;;38.33;;
19923;SDS011;10124;53.068;18.224;2022-11-20T03:42:35;62.20;;;38.90;;
19923;SDS011;10124;53.068;18.224;2022-11-20T03:45:16;63.37;;;39.60;;
19923;SDS011;10124;53.068;18.224;2022-11-20T03:47:45;63.70;;;39.03;;
19923;SDS011;10124;53.068;18.224;2022-11-20T03:50:13;64.53;;;39.87;;
19923;SDS011;10124;53.068;18.224;2022-11-20T03:52:41;62.37;;;37.07;;
19923;SDS011;10124;53.068;18.224;2022-11-20T03:55:09;61.70;;;37.97;;
19923;SDS011;10124;53.068;18.224;2022-11-20T03:57:37;67.63;;;39.23;;
19923;SDS011;10124;53.068;18.224;2022-11-20T04:00:04;61.70;;;37.30;;
19923;SDS011;10124;53.068;18.224;2022-11-20T04:02:33;60.97;;;38.67;;
19923;SDS011;10124;53.068;18.224;2022-11-20T04:05:00;62.10;;;38.30;;
19923;SDS011;10124;53.068;18.224;2022-11-20T04:07:28;63.80;;;40.13;;
19923;SDS011;10124;53.068;18.224;2022-11-20T04:09:55;66.77;;;38.40;;
19923;SDS011;10124;53.068;18.224;2022-11-20T04:12:23;70.73;;;40.10;;
19923;SDS011;10124;53.068;18.224;2022-11-20T04:14:50;64.93;;;38.90;;
19923;SDS011;10124;53.068;18.224;2022-11-20T04:17:17;67.60;;;40.80;;
19923;SDS011;10124;53.068;18.224;2022-11-20T04:19:45;64.60;;;38.83;;
19923;SDS011;10124;53.068;18.224;2022-11-20T04:22:13;62.67;;;39.20;;
19923;SDS011;10124;53.068;18.224;2022-11-20T04:24:41;64.33;;;39.37;;
19923;SDS011;10124;53.068;18.224;2022-11-20T04:27:09;63.23;;;39.87;;
19923;SDS011;10124;53.068;18.224;2022-11-20T04:29:36;66.87;;;39.27;;
19923;SDS011;10124;53.068;18.224;2022-11-20T04:32:04;62.73;;;39.43;;
19923;SDS011;10124;53.068;18.224;2022-11-20T04:34:31;63.63;;;39.17;;
19923;SDS011;10124;53.068;18.224;2022-11-20T04:37:00;58.73;;;38.47;;
19923;SDS011;10124;53.068;18.224;2022-11-20T04:39:27;65.10;;;39.70;;
19923;SDS011;10124;53.068;18.224;2022-11-20T04:41:55;65.97;;;39.50;;
19923;SDS011;10124;53.068;18.224;2022-11-20T04:44:41;63.83;;;39.33;;
19923;SDS011;10124;53.068;18.224;2022-11-20T04:47:09;68.33;;;41.23;;
19923;SDS011;10124;53.068;18.224;2022-11-20T04:49:36;64.40;;;39.40;;
19923;SDS011;10124;53.068;18.224;2022-11-20T04:52:04;71.43;;;44.03;;
19923;SDS011;10124;53.068;18.224;2022-11-20T04:54:32;65.57;;;41.53;;
19923;SDS011;10124;53.068;18.224;2022-11-20T04:56:59;74.87;;;42.67;;
19923;SDS011;10124;53.068;18.224;2022-11-20T04:59:27;66.87;;;40.43;;
19923;SDS011;10124;53.068;18.224;2022-11-20T05:01:54;65.33;;;38.90;;
19923;SDS011;10124;53.068;18.224;2022-11-20T05:04:22;76.40;;;44.03;;
19923;SDS011;10124;53.068;18.224;2022-11-20T05:06:50;69.37;;;40.33;;
19923;SDS011;10124;53.068;18.224;2022-11-20T05:09:17;71.33;;;42.53;;
19923;SDS011;10124;53.068;18.224;2022-11-20T05:11:45;68.93;;;41.40;;
19923;SDS011;10124;53.068;18.224;2022-11-20T05:14:17;77.50;;;42.80;;
19923;SDS011;10124;53.068;18.224;2022-11-20T05:16:44;69.97;;;41.40;;
19923;SDS011;10124;53.068;18.224;2022-11-20T05:19:12;70.30;;;41.97;;
19923;SDS011;10124;53.068;18.224;2022-11-20T05:21:40;69.10;;;43.03;;
19923;SDS011;10124;53.068;18.224;2022-11-20T05:24:07;66.13;;;40.83;;
19923;SDS011;10124;53.068;18.224;2022-11-20T05:26:35;64.27;;;39.17;;
19923;SDS011;10124;53.068;18.224;2022-11-20T05:29:02;70.03;;;39.80;;
19923;SDS011;10124;53.068;18.224;2022-11-20T05:31:30;65.67;;;39.57;;
19923;SDS011;10124;53.068;18.224;2022-11-20T05:33:58;64.30;;;39.70;;
19923;SDS011;10124;53.068;18.224;2022-11-20T05:36:25;60.67;;;38.63;;
19923;SDS011;10124;53.068;18.224;2022-11-20T05:38:53;62.07;;;38.37;;
19923;SDS011;10124;53.068;18.224;2022-11-20T05:41:27;59.63;;;38.90;;
19923;SDS011;10124;53.068;18.224;2022-11-20T05:43:55;63.97;;;40.10;;
19923;SDS011;10124;53.068;18.224;2022-11-20T05:46:24;63.53;;;38.43;;
19923;SDS011;10124;53.068;18.224;2022-11-20T05:48:56;66.40;;;41.93;;
19923;SDS011;10124;53.068;18.224;2022-11-20T05:51:25;66.33;;;40.10;;
19923;SDS011;10124;53.068;18.224;2022-11-20T05:53:58;67.37;;;40.33;;
19923;SDS011;10124;53.068;18.224;2022-11-20T05:56:25;67.17;;;41.50;;
19923;SDS011;10124;53.068;18.224;2022-11-20T05:58:53;63.67;;;39.63;;
19923;SDS011;10124;53.068;18.224;2022-11-20T06:01:24;65.40;;;40.97;;
19923;SDS011;10124;53.068;18.224;2022-11-20T06:03:53;60.97;;;39.57;;
19923;SDS011;10124;53.068;18.224;2022-11-20T06:06:21;71.03;;;42.27;;
19923;SDS011;10124;53.068;18.224;2022-11-20T06:08:50;66.63;;;41.07;;
19923;SDS011;10124;53.068;18.224;2022-11-20T06:11:17;67.73;;;40.63;;
19923;SDS011;10124;53.068;18.224;2022-11-20T06:13:45;65.03;;;40.80;;
19923;SDS011;10124;53.068;18.224;2022-11-20T06:16:15;67.27;;;41.80;;
19923;SDS011;10124;53.068;18.224;2022-11-20T06:18:45;71.03;;;44.47;;
19923;SDS011;10124;53.068;18.224;2022-11-20T06:21:17;72.47;;;42.50;;
19923;SDS011;10124;53.068;18.224;2022-11-20T06:23:49;72.53;;;44.77;;
19923;SDS011;10124;53.068;18.224;2022-11-20T06:26:21;73.00;;;42.97;;
19923;SDS011;10124;53.068;18.224;2022-11-20T06:28:51;70.60;;;43.00;;
19923;SDS011;10124;53.068;18.224;2022-11-20T06:31:21;74.37;;;42.40;;
19923;SDS011;10124;53.068;18.224;2022-11-20T06:33:50;71.67;;;43.73;;
19923;SDS011;10124;53.068;18.224;2022-11-20T06:36:19;75.33;;;45.60;;
19923;SDS011;10124;53.068;18.224;2022-11-20T06:38:48;70.27;;;43.33;;
19923;SDS011;10124;53.068;18.224;2022-11-20T06:41:17;72.60;;;46.43;;
19923;SDS011;10124;53.068;18.224;2022-11-20T06:43:47;72.17;;;45.23;;
19923;SDS011;10124;53.068;18.224;2022-11-20T06:46:16;66.60;;;42.33;;
19923;SDS011;10124;53.068;18.224;2022-11-20T06:48:46;67.30;;;41.90;;
19923;SDS011;10124;53.068;18.224;2022-11-20T06:51:14;75.50;;;44.37;;
19923;SDS011;10124;53.068;18.224;2022-11-20T06:53:43;74.40;;;44.80;;
19923;SDS011;10124;53.068;18.224;2022-11-20T06:56:10;77.53;;;46.10;;
19923;SDS011;10124;53.068;18.224;2022-11-20T06:58:38;70.67;;;45.43;;
19923;SDS011;10124;53.068;18.224;2022-11-20T07:01:07;68.33;;;44.40;;
19923;SDS011;10124;53.068;18.224;2022-11-20T07:03:39;75.37;;;46.33;;
19923;SDS011;10124;53.068;18.224;2022-11-20T07:06:07;70.80;;;45.03;;
19923;SDS011;10124;53.068;18.224;2022-11-20T07:08:35;74.37;;;44.77;;
19923;SDS011;10124;53.068;18.224;2022-11-20T07:11:04;74.30;;;44.57;;
19923;SDS011;10124;53.068;18.224;2022-11-20T07:13:33;80.70;;;46.87;;
19923;SDS011;10124;53.068;18.224;2022-11-20T07:16:02;74.70;;;45.17;;
19923;SDS011;10124;53.068;18.224;2022-11-20T07:18:32;64.67;;;41.30;;
19923;SDS011;10124;53.068;18.224;2022-11-20T07:21:04;67.87;;;42.67;;
19923;SDS011;10124;53.068;18.224;2022-11-20T07:23:36;69.30;;;43.30;;
19923;SDS011;10124;53.068;18.224;2022-11-20T07:26:05;70.00;;;43.67;;
19923;SDS011;10124;53.068;18.224;2022-11-20T07:28:34;72.30;;;41.23;;
19923;SDS011;10124;53.068;18.224;2022-11-20T07:31:03;74.97;;;44.90;;
19923;SDS011;10124;53.068;18.224;2022-11-20T07:33:34;66.70;;;41.47;;
19923;SDS011;10124;53.068;18.224;2022-11-20T07:36:01;71.37;;;44.73;;
19923;SDS011;10124;53.068;18.224;2022-11-20T07:38:29;73.63;;;45.23;;
19923;SDS011;10124;53.068;18.224;2022-11-20T07:40:58;67.90;;;43.77;;
19923;SDS011;10124;53.068;18.224;2022-11-20T07:43:29;75.83;;;45.83;;
19923;SDS011;10124;53.068;18.224;2022-11-20T07:46:02;66.50;;;43.57;;
19923;SDS011;10124;53.068;18.224;2022-11-20T07:48:31;74.47;;;46.37;;
19923;SDS011;10124;53.068;18.224;2022-11-20T07:50:59;67.53;;;42.90;;
19923;SDS011;10124;53.068;18.224;2022-11-20T07:53:27;65.13;;;41.80;;
19923;SDS011;10124;53.068;18.224;2022-11-20T07:55:54;71.43;;;44.70;;
19923;SDS011;10124;53.068;18.224;2022-11-20T07:58:26;64.63;;;40.70;;
19923;SDS011;10124;53.068;18.224;2022-11-20T08:00:55;67.07;;;40.17;;
19923;SDS011;10124;53.068;18.224;2022-11-20T08:03:24;61.47;;;41.27;;
19923;SDS011;10124;53.068;18.224;2022-11-20T08:05:51;64.87;;;40.97;;
19923;SDS011;10124;53.068;18.224;2022-11-20T08:08:20;63.07;;;39.60;;
19923;SDS011;10124;53.068;18.224;2022-11-20T08:10:49;65.80;;;38.40;;
19923;SDS011;10124;53.068;18.224;2022-11-20T08:13:17;66.57;;;40.23;;
19923;SDS011;10124;53.068;18.224;2022-11-20T08:16:03;65.33;;;40.43;;
19923;SDS011;10124;53.068;18.224;2022-11-20T08:18:34;61.17;;;37.07;;
19923;SDS011;10124;53.068;18.224;2022-11-20T08:21:01;62.13;;;39.20;;
19923;SDS011;10124;53.068;18.224;2022-11-20T08:23:33;65.53;;;39.37;;
19923;SDS011;10124;53.068;18.224;2022-11-20T08:26:02;63.93;;;40.13;;
19923;SDS011;10124;53.068;18.224;2022-11-20T08:28:30;70.17;;;41.73;;
19923;SDS011;10124;53.068;18.224;2022-11-20T08:30:59;60.77;;;37.87;;
19923;SDS011;10124;53.068;18.224;2022-11-20T08:33:29;60.77;;;38.03;;
19923;SDS011;10124;53.068;18.224;2022-11-20T08:36:00;64.53;;;37.60;;
19923;SDS011;10124;53.068;18.224;2022-11-20T08:38:32;62.80;;;37.33;;
19923;SDS011;10124;53.068;18.224;2022-11-20T08:41:02;65.10;;;38.97;;
19923;SDS011;10124;53.068;18.224;2022-11-20T08:44:00;64.90;;;38.77;;
19923;SDS011;10124;53.068;18.224;2022-11-20T08:46:37;59.30;;;37.23;;
19923;SDS011;10124;53.068;18.224;2022-11-20T08:49:09;60.93;;;38.43;;
19923;SDS011;10124;53.068;18.224;2022-11-20T08:51:39;61.50;;;38.57;;
19923;SDS011;10124;53.068;18.224;2022-11-20T08:54:08;58.73;;;38.13;;
19923;SDS011;10124;53.068;18.224;2022-11-20T08:56:35;64.77;;;39.60;;
19923;SDS011;10124;53.068;18.224;2022-11-20T08:59:05;63.73;;;38.43;;
19923;SDS011;10124;53.068;18.224;2022-11-20T09:01:53;63.67;;;42.03;;
19923;SDS011;10124;53.068;18.224;2022-11-20T09:04:21;65.23;;;40.03;;
19923;SDS011;10124;53.068;18.224;2022-11-20T09:06:49;67.97;;;42.40;;
19923;SDS011;10124;53.068;18.224;2022-11-20T09:09:19;66.83;;;40.73;;
19923;SDS011;10124;53.068;18.224;2022-11-20T09:11:47;72.83;;;45.73;;
19923;SDS011;10124;53.068;18.224;2022-11-20T09:14:18;62.33;;;40.63;;
19923;SDS011;10124;53.068;18.224;2022-11-20T09:16:46;70.43;;;43.53;;
19923;SDS011;10124;53.068;18.224;2022-11-20T09:19:14;69.80;;;43.87;;
19923;SDS011;10124;53.068;18.224;2022-11-20T09:22:02;72.40;;;46.57;;
19923;SDS011;10124;53.068;18.224;2022-11-20T09:24:30;73.83;;;45.80;;
19923;SDS011;10124;53.068;18.224;2022-11-20T09:26:57;71.27;;;44.73;;
19923;SDS011;10124;53.068;18.224;2022-11-20T09:29:28;66.83;;;41.80;;
19923;SDS011;10124;53.068;18.224;2022-11-20T09:31:56;68.67;;;42.43;;
19923;SDS011;10124;53.068;18.224;2022-11-20T09:34:24;62.70;;;41.27;;
19923;SDS011;10124;53.068;18.224;2022-11-20T09:36:51;67.83;;;40.13;;
19923;SDS011;10124;53.068;18.224;2022-11-20T09:39:19;69.90;;;41.13;;
19923;SDS011;10124;53.068;18.224;2022-11-20T09:47:58;69.10;;;41.67;;
19923;SDS011;10124;53.068;18.224;2022-11-20T09:50:41;63.37;;;40.17;;
19923;SDS011;10124;53.068;18.224;2022-11-20T09:56:14;61.47;;;38.90;;
19923;SDS011;10124;53.068;18.224;2022-11-20T09:58:50;69.03;;;43.43;;
19923;SDS011;10124;53.068;18.224;2022-11-20T10:01:23;65.67;;;40.37;;
19923;SDS011;10124;53.068;18.224;2022-11-20T10:04:00;71.63;;;42.13;;
19923;SDS011;10124;53.068;18.224;2022-11-20T10:06:41;71.60;;;44.07;;
19923;SDS011;10124;53.068;18.224;2022-11-20T10:09:49;72.90;;;46.27;;
19923;SDS011;10124;53.068;18.224;2022-11-20T10:15:40;67.63;;;42.87;;
19923;SDS011;10124;53.068;18.224;2022-11-20T10:26:47;71.97;;;43.73;;
19923;SDS011;10124;53.068;18.224;2022-11-20T10:29:57;67.57;;;41.97;;
19923;SDS011;10124;53.068;18.224;2022-11-20T10:32:20;70.27;;;42.37;;
19923;SDS011;10124;53.068;18.224;2022-11-20T10:34:58;59.63;;;38.60;;
19923;SDS011;10124;53.068;18.224;2022-11-20T10:37:31;59.80;;;38.43;;
19923;SDS011;10124;53.068;18.224;2022-11-20T10:48:44;62.33;;;40.37;;
19923;SDS011;10124;53.068;18.224;2022-11-20T10:54:21;61.50;;;39.23;;
19923;SDS011;10124;53.068;18.224;2022-11-20T10:57:01;65.37;;;39.73;;
19923;SDS011;10124;53.068;18.224;2022-11-20T11:02:22;72.13;;;40.83;;
19923;SDS011;10124;53.068;18.224;2022-11-20T11:04:52;66.97;;;41.40;;
19923;SDS011;10124;53.068;18.224;2022-11-20T11:07:30;67.67;;;42.17;;
19923;SDS011;10124;53.068;18.224;2022-11-20T11:10:22;62.50;;;39.47;;
19923;SDS011;10124;53.068;18.224;2022-11-20T11:12:57;65.33;;;39.83;;
19923;SDS011;10124;53.068;18.224;2022-11-20T11:15:29;64.23;;;41.27;;
19923;SDS011;10124;53.068;18.224;2022-11-20T11:18:07;65.93;;;41.13;;
19923;SDS011;10124;53.068;18.224;2022-11-20T11:20:37;66.93;;;41.67;;
19923;SDS011;10124;53.068;18.224;2022-11-20T11:23:10;66.77;;;41.43;;
19923;SDS011;10124;53.068;18.224;2022-11-20T11:26:28;66.60;;;40.43;;
19923;SDS011;10124;53.068;18.224;2022-11-20T11:28:59;66.00;;;42.27;;
19923;SDS011;10124;53.068;18.224;2022-11-20T11:36:33;69.23;;;42.00;;
19923;SDS011;10124;53.068;18.224;2022-11-20T11:39:03;73.83;;;42.30;;
19923;SDS011;10124;53.068;18.224;2022-11-20T11:41:33;69.23;;;43.40;;
19923;SDS011;10124;53.068;18.224;2022-11-20T11:44:19;67.77;;;41.10;;
19923;SDS011;10124;53.068;18.224;2022-11-20T11:47:11;66.13;;;41.90;;
19923;SDS011;10124;53.068;18.224;2022-11-20T11:50:28;67.87;;;41.20;;
19923;SDS011;10124;53.068;18.224;2022-11-20T11:56:25;70.47;;;42.23;;
19923;SDS011;10124;53.068;18.224;2022-11-20T11:58:47;68.00;;;39.60;;
19923;SDS011;10124;53.068;18.224;2022-11-20T12:02:01;67.80;;;41.70;;
19923;SDS011;10124;53.068;18.224;2022-11-20T12:07:19;72.60;;;41.60;;
19923;SDS011;10124;53.068;18.224;2022-11-20T12:10:15;64.60;;;38.97;;
19923;SDS011;10124;53.068;18.224;2022-11-20T12:15:57;68.40;;;42.90;;
19923;SDS011;10124;53.068;18.224;2022-11-20T12:18:26;67.93;;;42.40;;
19923;SDS011;10124;53.068;18.224;2022-11-20T12:20:59;67.50;;;42.17;;
19923;SDS011;10124;53.068;18.224;2022-11-20T12:29:29;67.03;;;39.27;;
19923;SDS011;10124;53.068;18.224;2022-11-20T12:35:11;61.60;;;37.87;;
19923;SDS011;10124;53.068;18.224;2022-11-20T12:37:57;67.30;;;38.37;;
19923;SDS011;10124;53.068;18.224;2022-11-20T13:23:37;65.03;;;38.47;;
19923;SDS011;10124;53.068;18.224;2022-11-20T13:29:19;102.83;;;57.73;;
19923;SDS011;10124;53.068;18.224;2022-11-20T13:31:49;60.23;;;37.40;;
19923;SDS011;10124;53.068;18.224;2022-11-20T13:34:23;60.83;;;36.23;;
19923;SDS011;10124;53.068;18.224;2022-11-20T13:36:55;56.80;;;35.50;;
19923;SDS011;10124;53.068;18.224;2022-11-20T13:39:30;61.10;;;35.10;;
19923;SDS011;10124;53.068;18.224;2022-11-20T13:44:43;54.00;;;35.83;;
19923;SDS011;10124;53.068;18.224;2022-11-20T13:47:34;57.10;;;35.63;;
19923;SDS011;10124;53.068;18.224;2022-11-20T13:50:09;52.90;;;34.67;;
19923;SDS011;10124;53.068;18.224;2022-11-20T13:52:54;55.47;;;34.13;;
19923;SDS011;10124;53.068;18.224;2022-11-20T13:55:45;62.77;;;37.60;;
19923;SDS011;10124;53.068;18.224;2022-11-20T14:01:24;70.43;;;39.87;;
19923;SDS011;10124;53.068;18.224;2022-11-20T14:03:59;61.97;;;37.93;;
19923;SDS011;10124;53.068;18.224;2022-11-20T14:06:43;56.60;;;34.77;;
19923;SDS011;10124;53.068;18.224;2022-11-20T14:09:30;55.97;;;32.73;;
19923;SDS011;10124;53.068;18.224;2022-11-20T14:11:59;51.10;;;32.70;;
19923;SDS011;10124;53.068;18.224;2022-11-20T14:14:29;52.53;;;34.10;;
19923;SDS011;10124;53.068;18.224;2022-11-20T14:17:06;54.90;;;32.67;;
19923;SDS011;10124;53.068;18.224;2022-11-20T14:19:50;54.87;;;34.23;;
19923;SDS011;10124;53.068;18.224;2022-11-20T14:22:26;51.37;;;32.70;;
19923;SDS011;10124;53.068;18.224;2022-11-20T14:27:55;52.20;;;33.50;;
19923;SDS011;10124;53.068;18.224;2022-11-20T14:30:29;58.63;;;34.87;;
19923;SDS011;10124;53.068;18.224;2022-11-20T14:33:06;56.77;;;34.63;;
19923;SDS011;10124;53.068;18.224;2022-11-20T14:35:35;54.87;;;34.47;;
19923;SDS011;10124;53.068;18.224;2022-11-20T14:38:09;56.50;;;34.20;;
19923;SDS011;10124;53.068;18.224;2022-11-20T14:40:42;58.43;;;34.53;;
19923;SDS011;10124;53.068;18.224;2022-11-20T14:43:29;54.43;;;33.23;;
19923;SDS011;10124;53.068;18.224;2022-11-20T14:46:04;59.67;;;35.33;;
19923;SDS011;10124;53.068;18.224;2022-11-20T14:48:40;55.90;;;33.13;;
19923;SDS011;10124;53.068;18.224;2022-11-20T14:51:32;59.97;;;35.43;;
19923;SDS011;10124;53.068;18.224;2022-11-20T14:54:09;62.73;;;39.43;;
19923;SDS011;10124;53.068;18.224;2022-11-20T14:56:42;67.47;;;40.77;;
19923;SDS011;10124;53.068;18.224;2022-11-20T14:59:32;72.70;;;41.97;;
19923;SDS011;10124;53.068;18.224;2022-11-20T15:02:03;69.40;;;41.20;;
19923;SDS011;10124;53.068;18.224;2022-11-20T15:04:49;64.30;;;39.97;;
19923;SDS011;10124;53.068;18.224;2022-11-20T15:07:29;64.57;;;39.27;;
19923;SDS011;10124;53.068;18.224;2022-11-20T15:10:04;68.63;;;43.17;;
19923;SDS011;10124;53.068;18.224;2022-11-20T15:12:38;73.40;;;41.50;;
19923;SDS011;10124;53.068;18.224;2022-11-20T15:15:15;72.37;;;44.03;;
19923;SDS011;10124;53.068;18.224;2022-11-20T15:17:45;75.67;;;42.27;;
19923;SDS011;10124;53.068;18.224;2022-11-20T15:20:14;64.37;;;39.27;;
19923;SDS011;10124;53.068;18.224;2022-11-20T15:22:44;75.87;;;42.20;;
19923;SDS011;10124;53.068;18.224;2022-11-20T15:25:14;73.20;;;41.70;;
19923;SDS011;10124;53.068;18.224;2022-11-20T15:27:43;66.43;;;37.17;;
19923;SDS011;10124;53.068;18.224;2022-11-20T15:30:17;71.47;;;39.13;;
19923;SDS011;10124;53.068;18.224;2022-11-20T15:32:47;61.63;;;39.90;;
19923;SDS011;10124;53.068;18.224;2022-11-20T15:35:15;66.00;;;40.20;;
19923;SDS011;10124;53.068;18.224;2022-11-20T15:37:43;63.30;;;38.37;;
19923;SDS011;10124;53.068;18.224;2022-11-20T15:40:11;61.83;;;37.90;;
19923;SDS011;10124;53.068;18.224;2022-11-20T15:42:40;56.73;;;37.60;;
19923;SDS011;10124;53.068;18.224;2022-11-20T15:45:29;63.10;;;38.33;;
19923;SDS011;10124;53.068;18.224;2022-11-20T15:48:01;67.43;;;40.43;;
19923;SDS011;10124;53.068;18.224;2022-11-20T15:50:34;63.47;;;38.07;;
19923;SDS011;10124;53.068;18.224;2022-11-20T15:53:05;73.97;;;40.87;;
19923;SDS011;10124;53.068;18.224;2022-11-20T15:55:34;68.03;;;42.50;;
19923;SDS011;10124;53.068;18.224;2022-11-20T15:58:02;69.80;;;41.20;;
19923;SDS011;10124;53.068;18.224;2022-11-20T16:00:31;61.63;;;39.57;;
19923;SDS011;10124;53.068;18.224;2022-11-20T16:03:00;69.07;;;37.67;;
19923;SDS011;10124;53.068;18.224;2022-11-20T16:05:28;64.43;;;38.47;;
19923;SDS011;10124;53.068;18.224;2022-11-20T16:07:57;72.57;;;43.00;;
19923;SDS011;10124;53.068;18.224;2022-11-20T16:10:24;69.70;;;40.43;;
19923;SDS011;10124;53.068;18.224;2022-11-20T16:12:53;64.07;;;39.57;;
19923;SDS011;10124;53.068;18.224;2022-11-20T16:15:39;64.40;;;39.27;;
19923;SDS011;10124;53.068;18.224;2022-11-20T16:18:14;63.10;;;37.47;;
19923;SDS011;10124;53.068;18.224;2022-11-20T16:20:49;66.00;;;40.73;;
19923;SDS011;10124;53.068;18.224;2022-11-20T16:23:22;70.37;;;43.47;;
19923;SDS011;10124;53.068;18.224;2022-11-20T16:25:50;73.80;;;42.70;;
19923;SDS011;10124;53.068;18.224;2022-11-20T16:28:19;73.27;;;46.63;;
19923;SDS011;10124;53.068;18.224;2022-11-20T16:30:47;67.90;;;42.53;;
19923;SDS011;10124;53.068;18.224;2022-11-20T16:33:16;74.43;;;44.27;;
19923;SDS011;10124;53.068;18.224;2022-11-20T16:35:44;71.30;;;42.47;;